Time;durP1;ratioP1;P1;durP2;ratioP2;P2;SDS_P1;SDS_P2;PMS_P1;PMS_P2;Temp;Humidity;BMP_temperature;BMP_pressure;BME280_temperature;BME280_humidity;BME280_pressure;Samples;Min_cycle;Max_cycle;Signal;HPM_P1;HPM_P2
2023/11/10 00:02:19;;;;;;;7.03;2.47;;;;;;;;;;5016459;28;20054;-78
2023/11/10 00:04:51;;;;;;;7.43;2.13;;;;;;;;;;5019700;28;20041;-80
2023/11/10 00:07:17;;;;;;;8.90;2.63;;;;;;;;;;5018968;28;20041;-80
2023/11/10 00:09:59;;;;;;;4.70;2.00;;;;;;;;;;5010754;28;20118;-79
2023/11/10 00:12:28;;;;;;;11.50;2.25;;;;;;;;;;5019212;28;20034;-80
2023/11/10 00:14:54;;;;;;;9.47;2.57;;;;;;;;;;5019982;28;20014;-80
2023/11/10 00:17:23;;;;;;;5.73;2.03;;;;;;;;;;5016156;28;20030;-80
2023/11/10 00:19:49;;;;;;;4.80;1.83;;;;;;;;;;5017742;28;20025;-80
2023/11/10 00:22:25;;;;;;;;;;;;;;;;;;;;;
2023/11/10 00:24:55;;;;;;;7.73;2.40;;;;;;;;;;5010089;28;20053;-80
2023/11/10 00:27:21;;;;;;;6.80;2.10;;;;;;;;;;5001885;28;20116;-80
2023/11/10 00:29:48;;;;;;;7.37;2.63;;;;;;;;;;5009813;28;20010;-80
2023/11/10 00:32:14;;;;;;;4.63;1.63;;;;;;;;;;5009370;28;20044;-80
2023/11/10 00:34:41;;;;;;;4.27;1.83;;;;;;;;;;5008778;28;20018;-80
2023/11/10 00:37:07;;;;;;;6.10;2.13;;;;;;;;;;5002246;28;20038;-80
2023/11/10 00:39:35;;;;;;;7.07;1.90;;;;;;;;;;5009594;28;20049;-80
2023/11/10 00:42:01;;;;;;;4.83;2.00;;;;;;;;;;5001940;28;20057;-80
2023/11/10 00:44:27;;;;;;;7.43;1.60;;;;;;;;;;5006364;28;20038;-80
2023/11/10 00:46:54;;;;;;;6.30;1.97;;;;;;;;;;5008430;28;20026;-80
2023/11/10 00:49:20;;;;;;;5.97;2.10;;;;;;;;;;5006783;28;20042;-80
2023/11/10 00:51:46;;;;;;;6.60;2.37;;;;;;;;;;5000928;28;20041;-80
2023/11/10 00:54:17;;;;;;;4.03;1.57;;;;;;;;;;5005608;28;20046;-80
2023/11/10 00:56:46;;;;;;;9.57;2.73;;;;;;;;;;5000939;28;20042;-80
2023/11/10 00:59:12;;;;;;;7.27;2.20;;;;;;;;;;5006359;28;20017;-79
2023/11/10 01:01:38;;;;;;;3.37;1.40;;;;;;;;;;5007126;28;20034;-80
2023/11/10 01:04:04;;;;;;;5.77;1.53;;;;;;;;;;5017258;28;20993;-80
2023/11/10 01:06:31;;;;;;;5.93;1.43;;;;;;;;;;5009424;28;20037;-79
2023/11/10 01:09:00;;;;;;;4.23;1.30;;;;;;;;;;5006395;28;20034;-80
2023/11/10 01:11:28;;;;;;;2.17;1.00;;;;;;;;;;5006124;28;20026;-79
2023/11/10 01:13:55;;;;;;;3.77;1.30;;;;;;;;;;5007570;28;20019;-79
2023/11/10 01:16:21;;;;;;;5.37;1.23;;;;;;;;;;5004792;28;20052;-80
2023/11/10 01:18:47;;;;;;;5.20;1.07;;;;;;;;;;5005601;28;20023;-79
2023/11/10 01:21:15;;;;;;;3.87;1.10;;;;;;;;;;5005685;28;20034;-79
2023/11/10 01:23:44;;;;;;;2.13;1.20;;;;;;;;;;5006689;28;20022;-79
2023/11/10 01:26:13;;;;;;;5.20;1.40;;;;;;;;;;5004718;28;20056;-79
2023/11/10 01:28:39;;;;;;;4.27;1.10;;;;;;;;;;5003284;28;20030;-79
2023/11/10 01:31:05;;;;;;;2.77;0.93;;;;;;;;;;5008788;28;20018;-79
2023/11/10 01:33:33;;;;;;;5.40;1.07;;;;;;;;;;5005852;28;20019;-79
2023/11/10 01:36:00;;;;;;;2.00;0.87;;;;;;;;;;5004618;28;20054;-80
2023/11/10 01:38:26;;;;;;;2.13;1.00;;;;;;;;;;5005008;28;20035;-79
2023/11/10 01:40:52;;;;;;;5.20;1.07;;;;;;;;;;5005419;28;20033;-79
2023/11/10 01:43:20;;;;;;;1.90;0.73;;;;;;;;;;5005172;28;21089;-79
2023/11/10 01:45:46;;;;;;;2.97;0.80;;;;;;;;;;5002169;28;20026;-79
2023/11/10 01:48:15;;;;;;;2.63;1.07;;;;;;;;;;5005764;28;20247;-79
2023/11/10 01:50:47;;;;;;;4.80;1.07;;;;;;;;;;5004924;28;20074;-79
2023/11/10 01:53:17;;;;;;;5.73;1.23;;;;;;;;;;5006009;28;20034;-79
2023/11/10 01:56:04;;;;;;;5.97;1.33;;;;;;;;;;5010482;28;20026;-79
2023/11/10 01:58:30;;;;;;;3.50;1.20;;;;;;;;;;5006418;28;20023;-79
2023/11/10 02:00:58;;;;;;;3.93;1.43;;;;;;;;;;5006647;28;20034;-79
2023/11/10 02:03:29;;;;;;;5.10;1.50;;;;;;;;;;4999164;28;20049;-78
2023/11/10 02:05:55;;;;;;;6.07;1.10;;;;;;;;;;5003847;28;20022;-79
2023/11/10 02:08:26;;;;;;;3.90;0.80;;;;;;;;;;5007513;28;20018;-79
2023/11/10 02:10:55;;;;;;;4.43;0.83;;;;;;;;;;5007767;28;20067;-79
2023/11/10 02:13:28;;;;;;;9.50;1.80;;;;;;;;;;5005665;28;20022;-80
2023/11/10 02:15:57;;;;;;;8.73;1.70;;;;;;;;;;5004899;28;20035;-80
2023/11/10 02:18:24;;;;;;;10.07;2.07;;;;;;;;;;5006377;28;20034;-80
2023/11/10 02:20:53;;;;;;;3.03;1.30;;;;;;;;;;5006855;28;20035;-80
2023/11/10 02:23:22;;;;;;;7.17;1.73;;;;;;;;;;5004956;28;20181;-80
2023/11/10 02:25:52;;;;;;;6.00;1.63;;;;;;;;;;5004049;28;20033;-80
2023/11/10 02:28:23;;;;;;;4.70;1.53;;;;;;;;;;5007391;28;20030;-79
2023/11/10 02:30:49;;;;;;;3.43;1.33;;;;;;;;;;5006237;28;20034;-80
2023/11/10 02:33:15;;;;;;;5.13;1.30;;;;;;;;;;5006230;28;20027;-80
2023/11/10 02:35:43;;;;;;;5.80;1.30;;;;;;;;;;4999246;28;20147;-80
2023/11/10 02:38:12;;;;;;;3.90;1.37;;;;;;;;;;5006155;28;20054;-80
2023/11/10 02:40:40;;;;;;;3.80;1.30;;;;;;;;;;5006462;28;20019;-80
2023/11/10 02:43:09;;;;;;;4.03;1.23;;;;;;;;;;5006379;28;20034;-80
2023/11/10 02:45:37;;;;;;;3.17;1.10;;;;;;;;;;5007343;28;20079;-80
2023/11/10 02:48:03;;;;;;;4.30;1.40;;;;;;;;;;5005783;28;20031;-80
2023/11/10 02:50:32;;;;;;;5.83;1.50;;;;;;;;;;5000986;28;20403;-79
2023/11/10 02:52:58;;;;;;;3.63;1.70;;;;;;;;;;5004118;28;20106;-80
2023/11/10 02:55:24;;;;;;;4.30;1.73;;;;;;;;;;5006439;28;20034;-80
2023/11/10 02:57:52;;;;;;;5.83;2.53;;;;;;;;;;5006972;28;20401;-80
2023/11/10 03:00:19;;;;;;;3.40;1.77;;;;;;;;;;5006996;28;20102;-80
2023/11/10 03:02:45;;;;;;;4.33;1.73;;;;;;;;;;5007820;28;20125;-80
2023/11/10 03:05:11;;;;;;;5.10;1.83;;;;;;;;;;5006838;28;20018;-80
2023/11/10 03:07:37;;;;;;;6.77;1.97;;;;;;;;;;5007694;28;20069;-80
2023/11/10 03:10:20;;;;;;;9.13;2.03;;;;;;;;;;5008448;28;20046;-79
2023/11/10 03:12:49;;;;;;;5.13;2.10;;;;;;;;;;5008263;28;20026;-79
2023/11/10 03:15:17;;;;;;;4.73;1.90;;;;;;;;;;5004423;28;20029;-80
2023/11/10 03:17:46;;;;;;;9.17;2.20;;;;;;;;;;5009314;28;20060;-79
2023/11/10 03:20:15;;;;;;;6.37;2.97;;;;;;;;;;5010309;28;20019;-80
2023/11/10 03:22:41;;;;;;;9.30;2.70;;;;;;;;;;5009404;28;20093;-80
2023/11/10 03:25:10;;;;;;;6.13;2.43;;;;;;;;;;5008790;28;20094;-79
2023/11/10 03:27:36;;;;;;;7.43;2.67;;;;;;;;;;5008386;28;20065;-80
2023/11/10 03:30:05;;;;;;;11.90;2.57;;;;;;;;;;5009570;28;20049;-79
2023/11/10 03:32:40;;;;;;;4.80;1.90;;;;;;;;;;5008987;28;20019;-79
2023/11/10 03:35:12;;;;;;;8.17;2.37;;;;;;;;;;5010060;28;20018;-79
2023/11/10 03:37:41;;;;;;;8.70;2.22;;;;;;;;;;5008568;28;20036;-80
2023/11/10 03:40:10;;;;;;;5.33;2.20;;;;;;;;;;5004145;28;20025;-80
2023/11/10 03:42:39;;;;;;;6.27;1.60;;;;;;;;;;5009002;28;20038;-79
2023/11/10 03:45:08;;;;;;;4.70;1.90;;;;;;;;;;5004598;28;20047;-79
2023/11/10 03:47:34;;;;;;;9.73;2.70;;;;;;;;;;5006297;28;20031;-79
2023/11/10 03:50:00;;;;;;;6.97;2.10;;;;;;;;;;5009160;28;20033;-79
2023/11/10 03:52:29;;;;;;;7.93;2.77;;;;;;;;;;5008149;28;20021;-79
2023/11/10 03:54:57;;;;;;;9.07;2.50;;;;;;;;;;5010023;28;20025;-79
2023/11/10 03:57:30;;;;;;;3.97;2.23;;;;;;;;;;5007872;28;20030;-79
2023/11/10 03:59:56;;;;;;;7.27;2.40;;;;;;;;;;5009139;28;20038;-80
2023/11/10 04:02:22;;;;;;;6.27;2.27;;;;;;;;;;5007791;28;20033;-79
2023/11/10 04:04:48;;;;;;;9.03;2.50;;;;;;;;;;5007358;28;20022;-79
2023/11/10 04:07:17;;;;;;;5.53;2.37;;;;;;;;;;5008639;28;20098;-79
2023/11/10 04:09:45;;;;;;;10.00;3.80;;;;;;;;;;5004803;28;20031;-79
2023/11/10 04:12:11;;;;;;;5.63;2.47;;;;;;;;;;5010511;28;20048;-79
2023/11/10 04:14:40;;;;;;;4.30;2.33;;;;;;;;;;5005316;28;20030;-79
2023/11/10 04:17:09;;;;;;;5.73;1.97;;;;;;;;;;5008773;28;20041;-79
2023/11/10 04:19:43;;;;;;;6.30;1.90;;;;;;;;;;5006785;28;20022;-79
2023/11/10 04:22:09;;;;;;;9.07;3.57;;;;;;;;;;5010216;28;20038;-79
2023/11/10 04:24:40;;;;;;;6.53;2.40;;;;;;;;;;5010465;28;20014;-79
2023/11/10 04:27:06;;;;;;;9.30;2.50;;;;;;;;;;5005075;28;20098;-79
2023/11/10 04:29:36;;;;;;;7.13;2.77;;;;;;;;;;5007650;28;20022;-79
2023/11/10 04:32:04;;;;;;;7.47;2.87;;;;;;;;;;5009186;28;20018;-79
2023/11/10 04:34:38;;;;;;;4.93;2.60;;;;;;;;;;5003190;28;20019;-79
2023/11/10 04:37:06;;;;;;;5.57;1.83;;;;;;;;;;5010277;28;20102;-79
2023/11/10 04:39:37;;;;;;;6.00;1.83;;;;;;;;;;5009333;28;20022;-80
2023/11/10 04:42:04;;;;;;;6.70;2.00;;;;;;;;;;5008286;28;20056;-78
2023/11/10 04:44:30;;;;;;;8.23;1.90;;;;;;;;;;5018108;28;20037;-79
2023/11/10 04:46:58;;;;;;;3.43;1.67;;;;;;;;;;5015768;28;20111;-79
2023/11/10 04:49:42;;;;;;;8.77;1.37;;;;;;;;;;5013785;28;20021;-79
2023/11/10 04:52:14;;;;;;;6.93;1.30;;;;;;;;;;5017278;28;20034;-79
2023/11/10 04:54:41;;;;;;;;;;;;;;;;;;5018598;28;20010;-79
2023/11/10 04:57:18;;;;;;;;;;;;;;;;;;;;;
2023/11/10 05:00:02;;;;;;;9.93;1.40;;;;;;;;;;5019197;28;20022;-79
2023/11/10 05:02:31;;;;;;;3.40;1.07;;;;;;;;;;5022785;28;20015;-78
2023/11/10 05:04:57;;;;;;;9.00;1.50;;;;;;;;;;5013444;28;20038;-79
2023/11/10 05:07:25;;;;;;;5.80;1.37;;;;;;;;;;5018091;28;20018;-78
2023/11/10 05:09:54;;;;;;;4.60;1.50;;;;;;;;;;5016902;28;20030;-78
2023/11/10 05:12:20;;;;;;;5.80;1.10;;;;;;;;;;5007329;28;20010;-79
2023/11/10 05:14:46;;;;;;;9.07;1.40;;;;;;;;;;5010419;28;20016;-79
2023/11/10 05:17:12;;;;;;;5.23;1.20;;;;;;;;;;5018303;28;20033;-78
2023/11/10 05:19:43;;;;;;;4.37;1.43;;;;;;;;;;5017404;28;20030;-80
2023/11/10 05:22:09;;;;;;;6.93;1.23;;;;;;;;;;5008088;28;20023;-78
2023/11/10 05:24:35;;;;;;;3.10;1.30;;;;;;;;;;5017626;28;20011;-79
2023/11/10 05:27:02;;;;;;;4.47;1.40;;;;;;;;;;5011768;28;20034;-78
2023/11/10 05:29:28;;;;;;;4.17;1.30;;;;;;;;;;5017445;28;20007;-78
2023/11/10 05:31:59;;;;;;;7.60;1.37;;;;;;;;;;5017615;28;20046;-79
2023/11/10 05:34:27;;;;;;;7.70;1.63;;;;;;;;;;5010312;28;20011;-79
2023/11/10 05:36:53;;;;;;;7.27;1.30;;;;;;;;;;5017656;28;20018;-79
2023/11/10 05:39:19;;;;;;;4.00;1.20;;;;;;;;;;5019276;28;20045;-78
2023/11/10 05:41:47;;;;;;;5.17;1.73;;;;;;;;;;5017645;28;20053;-79
2023/11/10 05:44:14;;;;;;;7.00;1.53;;;;;;;;;;5017763;28;20042;-79
2023/11/10 05:46:43;;;;;;;6.70;1.47;;;;;;;;;;5017311;28;20022;-79
2023/11/10 05:49:09;;;;;;;4.47;1.17;;;;;;;;;;5017268;28;20011;-79
2023/11/10 05:51:35;;;;;;;5.50;1.00;;;;;;;;;;5017163;28;20037;-78
2023/11/10 05:54:01;;;;;;;4.70;1.30;;;;;;;;;;5016035;28;20010;-81
2023/11/10 05:56:34;;;;;;;10.57;1.93;;;;;;;;;;5017058;28;20014;-78
2023/11/10 05:59:01;;;;;;;3.83;1.30;;;;;;;;;;5038914;23;20042;-78
2023/11/10 06:01:28;;;;;;;7.43;1.53;;;;;;;;;;5010266;28;20027;-78
2023/11/10 06:03:56;;;;;;;7.73;1.63;;;;;;;;;;5017715;28;20026;-78
2023/11/10 06:06:24;;;;;;;7.43;1.40;;;;;;;;;;5013399;28;20030;-78
2023/11/10 06:08:54;;;;;;;8.43;1.27;;;;;;;;;;5032706;28;20030;-80
2023/11/10 06:11:23;;;;;;;4.37;1.07;;;;;;;;;;5018410;28;20070;-78
2023/11/10 06:13:49;;;;;;;4.17;1.23;;;;;;;;;;5016039;28;20061;-78
2023/11/10 06:16:21;;;;;;;5.13;0.80;;;;;;;;;;5017338;28;20019;-77
2023/11/10 06:18:47;;;;;;;4.30;1.27;;;;;;;;;;5025587;28;20038;-79
2023/11/10 06:21:22;;;;;;;5.00;1.27;;;;;;;;;;5011838;28;20098;-78
2023/11/10 06:23:53;;;;;;;2.87;1.23;;;;;;;;;;5024508;28;20010;-78
2023/11/10 06:26:23;;;;;;;4.67;1.50;;;;;;;;;;5023721;28;20030;-78
2023/11/10 06:28:54;;;;;;;9.50;1.83;;;;;;;;;;5026604;28;20065;-78
2023/11/10 06:31:27;;;;;;;3.57;1.40;;;;;;;;;;5024679;28;20034;-78
2023/11/10 06:33:56;;;;;;;4.57;0.90;;;;;;;;;;5023467;28;20038;-80
2023/11/10 06:36:27;;;;;;;8.50;1.10;;;;;;;;;;5023786;28;20029;-80
2023/11/10 06:38:53;;;;;;;4.67;1.10;;;;;;;;;;5009597;28;20011;-78
2023/11/10 06:41:19;;;;;;;4.57;0.90;;;;;;;;;;5012185;28;20030;-78
2023/11/10 06:43:47;;;;;;;6.13;1.17;;;;;;;;;;5012652;28;20147;-77
2023/11/10 06:46:23;;;;;;;4.93;1.30;;;;;;;;;;5012862;28;20082;-78
2023/11/10 06:48:53;;;;;;;5.17;1.40;;;;;;;;;;5027536;28;20039;-78
2023/11/10 06:51:26;;;;;;;4.80;1.17;;;;;;;;;;5018110;28;20030;-78
2023/11/10 06:53:52;;;;;;;7.30;2.73;;;;;;;;;;5011859;28;21164;-78
2023/11/10 06:56:18;;;;;;;9.13;1.87;;;;;;;;;;5028577;28;20164;-78
2023/11/10 06:58:46;;;;;;;7.57;2.40;;;;;;;;;;5030116;28;20033;-78
2023/11/10 07:01:17;;;;;;;9.17;2.63;;;;;;;;;;5012994;28;20102;-78
2023/11/10 07:03:45;;;;;;;9.60;2.40;;;;;;;;;;5014090;28;20203;-78
2023/11/10 07:06:14;;;;;;;4.73;1.87;;;;;;;;;;5027072;28;20102;-78
2023/11/10 07:08:42;;;;;;;8.23;2.00;;;;;;;;;;5011176;28;20566;-78
2023/11/10 07:11:14;;;;;;;5.23;1.60;;;;;;;;;;5013336;28;20107;-78
2023/11/10 07:13:41;;;;;;;7.70;2.20;;;;;;;;;;5028740;28;20039;-78
2023/11/10 07:16:07;;;;;;;6.67;1.73;;;;;;;;;;5013789;28;20018;-78
2023/11/10 07:18:36;;;;;;;3.70;1.60;;;;;;;;;;5031030;28;20026;-78
2023/11/10 07:21:02;;;;;;;7.53;1.90;;;;;;;;;;5026972;28;20057;-78
2023/11/10 07:23:30;;;;;;;12.20;2.43;;;;;;;;;;5011598;28;20041;-78
2023/11/10 07:25:59;;;;;;;7.97;2.37;;;;;;;;;;5028122;28;20089;-78
2023/11/10 07:28:33;;;;;;;6.77;1.80;;;;;;;;;;5027288;28;20094;-79
2023/11/10 07:31:09;;;;;;;8.27;2.47;;;;;;;;;;5024882;28;20041;-79
2023/11/10 07:33:41;;;;;;;8.57;2.43;;;;;;;;;;5029456;28;20065;-78
2023/11/10 07:36:10;;;;;;;7.20;2.57;;;;;;;;;;5028684;28;20053;-78
2023/11/10 07:38:39;;;;;;;6.03;1.50;;;;;;;;;;5012614;28;20021;-78
2023/11/10 07:41:05;;;;;;;7.70;1.90;;;;;;;;;;5015217;28;20068;-78
2023/11/10 07:43:34;;;;;;;4.90;1.83;;;;;;;;;;5012965;28;20045;-79
2023/11/10 07:46:04;;;;;;;6.60;1.77;;;;;;;;;;5026728;28;20033;-78
2023/11/10 07:48:31;;;;;;;7.23;1.60;;;;;;;;;;5012707;28;20022;-78
2023/11/10 07:51:04;;;;;;;6.60;1.37;;;;;;;;;;5012218;28;20018;-78
2023/11/10 07:53:31;;;;;;;3.07;0.90;;;;;;;;;;5012172;28;20054;-78
2023/11/10 07:56:01;;;;;;;12.80;2.03;;;;;;;;;;5009889;28;20122;-78
2023/11/10 07:58:27;;;;;;;3.90;0.87;;;;;;;;;;5010517;28;21386;-78
2023/11/10 08:00:55;;;;;;;5.30;1.27;;;;;;;;;;5012193;28;20019;-78
2023/11/10 08:03:25;;;;;;;7.07;1.10;;;;;;;;;;5012070;28;20058;-78
2023/11/10 08:05:53;;;;;;;5.93;1.20;;;;;;;;;;5011078;28;20026;-78
2023/11/10 08:08:21;;;;;;;4.10;1.07;;;;;;;;;;5012343;28;20030;-78
2023/11/10 08:10:50;;;;;;;4.87;1.30;;;;;;;;;;5023648;28;20138;-78
2023/11/10 08:13:19;;;;;;;8.40;1.33;;;;;;;;;;5011684;28;20031;-78
2023/11/10 08:15:45;;;;;;;4.40;1.10;;;;;;;;;;5016141;28;20049;-78
2023/11/10 08:18:12;;;;;;;5.73;1.30;;;;;;;;;;5011593;28;20014;-78
2023/11/10 08:20:40;;;;;;;6.90;1.20;;;;;;;;;;5011258;28;20097;-78
2023/11/10 08:23:06;;;;;;;5.80;1.53;;;;;;;;;;5027602;28;20029;-78
2023/11/10 08:25:32;;;;;;;6.73;1.30;;;;;;;;;;5014310;28;20025;-78
2023/11/10 08:27:58;;;;;;;8.17;1.60;;;;;;;;;;5012797;28;20053;-78
2023/11/10 08:30:27;;;;;;;4.13;1.10;;;;;;;;;;5011249;28;20022;-78
2023/11/10 08:32:53;;;;;;;7.67;1.67;;;;;;;;;;5011877;28;20010;-78
2023/11/10 08:35:19;;;;;;;3.90;1.47;;;;;;;;;;5009905;28;20110;-78
2023/11/10 08:37:49;;;;;;;3.63;1.37;;;;;;;;;;5010863;28;20021;-78
2023/11/10 08:40:17;;;;;;;3.97;1.50;;;;;;;;;;5025165;28;20090;-78
2023/11/10 08:42:46;;;;;;;6.60;1.20;;;;;;;;;;5026113;28;20045;-78
2023/11/10 08:45:14;;;;;;;6.07;1.17;;;;;;;;;;5009338;28;20018;-78
2023/11/10 08:47:41;;;;;;;3.83;1.40;;;;;;;;;;5027261;28;20042;-78
2023/11/10 08:50:12;;;;;;;5.23;1.00;;;;;;;;;;5013906;28;20018;-78
2023/11/10 08:52:41;;;;;;;4.78;1.10;;;;;;;;;;5026344;28;20038;-78
2023/11/10 08:55:10;;;;;;;8.87;1.77;;;;;;;;;;5011707;28;20025;-78
2023/11/10 08:57:42;;;;;;;6.10;1.53;;;;;;;;;;5025519;28;20153;-78
2023/11/10 09:00:11;;;;;;;5.35;1.63;;;;;;;;;;5010534;28;20038;-78
2023/11/10 09:02:45;;;;;;;3.90;0.77;;;;;;;;;;5012685;28;20030;-78
2023/11/10 09:08:23;;;;;;;5.63;1.30;;;;;;;;;;5007826;28;20439;-78
2023/11/10 09:10:57;;;;;;;4.33;1.03;;;;;;;;;;5012385;28;20042;-78
2023/11/10 09:13:23;;;;;;;5.60;1.17;;;;;;;;;;5012589;28;20018;-79
2023/11/10 09:15:51;;;;;;;6.63;1.00;;;;;;;;;;5011747;28;20062;-78
2023/11/10 09:18:17;;;;;;;3.83;0.80;;;;;;;;;;5024486;28;20027;-78
2023/11/10 09:20:45;;;;;;;7.20;1.03;;;;;;;;;;5009530;28;20022;-78
2023/11/10 09:23:13;;;;;;;6.03;1.70;;;;;;;;;;5013163;28;20094;-78
2023/11/10 09:25:39;;;;;;;5.27;1.40;;;;;;;;;;5025499;28;20139;-78
2023/11/10 09:28:06;;;;;;;6.43;1.17;;;;;;;;;;5013649;28;20061;-78
2023/11/10 09:30:33;;;;;;;5.57;1.00;;;;;;;;;;5027514;28;20412;-78
2023/11/10 09:32:59;;;;;;;5.33;1.40;;;;;;;;;;5026170;28;20046;-78
2023/11/10 09:35:28;;;;;;;7.30;1.60;;;;;;;;;;5013254;28;20038;-78
2023/11/10 09:37:55;;;;;;;3.57;1.43;;;;;;;;;;5010454;28;20019;-78
2023/11/10 09:40:23;;;;;;;3.03;0.90;;;;;;;;;;5013535;28;20086;-78
2023/11/10 09:42:49;;;;;;;2.13;0.97;;;;;;;;;;5011393;28;20038;-78
2023/11/10 09:45:15;;;;;;;4.13;1.10;;;;;;;;;;5012690;28;20042;-78
2023/11/10 09:47:42;;;;;;;4.53;1.67;;;;;;;;;;5010311;28;20026;-78
2023/11/10 09:50:15;;;;;;;3.53;1.13;;;;;;;;;;5009819;28;20141;-78
2023/11/10 09:52:43;;;;;;;8.30;1.77;;;;;;;;;;5025410;28;20054;-78
2023/11/10 09:55:10;;;;;;;4.53;1.07;;;;;;;;;;5010238;28;20030;-78
2023/11/10 09:57:36;;;;;;;5.90;1.03;;;;;;;;;;5011751;28;20217;-78
2023/11/10 10:00:04;;;;;;;3.57;0.97;;;;;;;;;;5010106;28;20077;-78
2023/11/10 10:02:32;;;;;;;5.30;1.23;;;;;;;;;;5007767;28;20046;-78
2023/11/10 10:04:59;;;;;;;2.77;0.73;;;;;;;;;;5011678;28;20063;-78
2023/11/10 10:07:25;;;;;;;3.40;0.53;;;;;;;;;;5026067;28;20030;-78
2023/11/10 10:09:53;;;;;;;10.20;1.40;;;;;;;;;;5008781;28;20019;-78
2023/11/10 10:12:24;;;;;;;6.67;1.00;;;;;;;;;;5010486;28;20027;-78
2023/11/10 10:14:54;;;;;;;5.07;1.47;;;;;;;;;;5010085;28;20050;-78
2023/11/10 10:17:32;;;;;;;4.90;1.17;;;;;;;;;;5008019;28;20026;-79
2023/11/10 10:20:14;;;;;;;5.70;1.50;;;;;;;;;;5016350;28;20034;-78
2023/11/10 10:22:47;;;;;;;5.13;1.00;;;;;;;;;;5013748;28;20046;-78
2023/11/10 10:25:21;;;;;;;3.60;0.87;;;;;;;;;;5030657;28;20149;-78
2023/11/10 10:27:50;;;;;;;6.23;1.10;;;;;;;;;;5029326;28;20034;-78
2023/11/10 10:30:18;;;;;;;7.13;1.10;;;;;;;;;;5027334;28;20033;-78
2023/11/10 10:32:44;;;;;;;2.23;0.60;;;;;;;;;;5015167;28;20060;-78
2023/11/10 10:35:12;;;;;;;4.80;0.80;;;;;;;;;;5013196;28;20045;-78
2023/11/10 10:37:41;;;;;;;6.50;1.10;;;;;;;;;;5029248;28;20045;-78
2023/11/10 10:40:13;;;;;;;5.00;0.77;;;;;;;;;;5014854;28;20039;-78
2023/11/10 10:42:41;;;;;;;3.85;1.00;;;;;;;;;;5016026;28;20058;-79
2023/11/10 10:45:09;;;;;;;3.70;0.90;;;;;;;;;;5020904;28;20017;-78
2023/11/10 10:47:46;;;;;;;6.97;1.40;;;;;;;;;;5028799;28;20045;-78
2023/11/10 10:50:12;;;;;;;4.77;0.93;;;;;;;;;;5018165;28;20031;-78
2023/11/10 10:52:39;;;;;;;7.20;1.57;;;;;;;;;;5033572;28;20062;-78
2023/11/10 10:55:06;;;;;;;5.27;1.00;;;;;;;;;;5020868;28;20011;-78
2023/11/10 10:57:38;;;;;;;4.77;1.23;;;;;;;;;;5021402;28;20034;-78
2023/11/10 11:00:06;;;;;;;4.57;0.80;;;;;;;;;;5021538;28;20015;-78
2023/11/10 11:02:33;;;;;;;4.17;0.90;;;;;;;;;;5021236;28;20042;-78
2023/11/10 11:05:08;;;;;;;8.37;0.97;;;;;;;;;;5016781;28;20007;-78
2023/11/10 11:07:38;;;;;;;3.30;1.10;;;;;;;;;;5021256;28;20038;-78
2023/11/10 11:10:07;;;;;;;5.40;1.03;;;;;;;;;;5021458;28;20011;-78
2023/11/10 11:12:42;;;;;;;5.93;1.90;;;;;;;;;;5021247;28;20041;-78
2023/11/10 11:15:20;;;;;;;9.10;1.60;;;;;;;;;;5013602;28;20018;-78
2023/11/10 11:17:59;;;;;;;4.60;0.97;;;;;;;;;;5021055;28;20038;-78
2023/11/10 11:20:25;;;;;;;4.90;0.90;;;;;;;;;;5021283;28;20014;-78
2023/11/10 11:22:54;;;;;;;7.50;1.20;;;;;;;;;;5020634;28;20034;-78
2023/11/10 11:25:25;;;;;;;6.17;1.03;;;;;;;;;;5013937;28;20019;-78
2023/11/10 11:27:59;;;;;;;6.27;1.43;;;;;;;;;;5021069;28;20019;-77
2023/11/10 11:30:40;;;;;;;3.90;1.13;;;;;;;;;;5020861;28;20064;-77
2023/11/10 11:33:13;;;;;;;4.40;0.90;;;;;;;;;;5020728;28;20021;-78
2023/11/10 11:35:51;;;;;;;4.45;1.10;;;;;;;;;;5015823;28;20023;-78
2023/11/10 11:38:31;;;;;;;3.53;1.33;;;;;;;;;;5020850;28;20014;-78
2023/11/10 11:40:57;;;;;;;3.80;0.93;;;;;;;;;;5012457;28;20043;-78
2023/11/10 11:43:24;;;;;;;4.40;1.00;;;;;;;;;;5019376;28;20017;-78
2023/11/10 11:45:52;;;;;;;4.03;0.83;;;;;;;;;;5020857;28;20022;-77
2023/11/10 11:48:19;;;;;;;7.57;0.90;;;;;;;;;;5020643;28;20006;-78
2023/11/10 11:50:48;;;;;;;6.67;1.40;;;;;;;;;;5020578;28;20053;-78
2023/11/10 11:53:17;;;;;;;6.33;1.30;;;;;;;;;;5020512;28;20090;-78
2023/11/10 11:55:48;;;;;;;3.10;0.90;;;;;;;;;;5020486;28;20011;-78
2023/11/10 11:58:14;;;;;;;5.73;0.87;;;;;;;;;;5020700;28;20011;-78
2023/11/10 12:00:40;;;;;;;3.33;0.57;;;;;;;;;;5020388;28;20074;-78
2023/11/10 12:03:09;;;;;;;4.30;1.00;;;;;;;;;;5019989;28;20022;-78
2023/11/10 12:05:35;;;;;;;3.67;0.63;;;;;;;;;;5020165;28;20007;-78
2023/11/10 12:08:01;;;;;;;3.47;0.93;;;;;;;;;;5018095;28;20021;-78
2023/11/10 12:10:28;;;;;;;6.47;1.30;;;;;;;;;;5020487;28;20119;-78
2023/11/10 12:12:55;;;;;;;8.33;0.97;;;;;;;;;;5018891;28;19999;-78
2023/11/10 12:15:22;;;;;;;7.07;1.17;;;;;;;;;;5020125;28;20049;-77
2023/11/10 12:17:48;;;;;;;5.50;1.00;;;;;;;;;;5017833;28;20025;-78
2023/11/10 12:20:14;;;;;;;6.00;0.87;;;;;;;;;;5012880;28;20023;-78
2023/11/10 12:22:53;;;;;;;3.47;0.70;;;;;;;;;;5027963;28;20061;-78
2023/11/10 12:25:22;;;;;;;2.37;0.43;;;;;;;;;;4998753;28;20050;-78
2023/11/10 12:27:50;;;;;;;5.60;0.83;;;;;;;;;;5011945;28;20042;-78
2023/11/10 12:30:16;;;;;;;3.33;0.60;;;;;;;;;;5017251;28;20029;-78
2023/11/10 12:32:42;;;;;;;2.20;0.60;;;;;;;;;;5013790;28;20026;-77
2023/11/10 12:35:12;;;;;;;2.37;0.70;;;;;;;;;;5024819;28;20022;-79
2023/11/10 12:37:48;;;;;;;3.33;0.70;;;;;;;;;;5013808;28;20018;-78
2023/11/10 12:40:17;;;;;;;2.37;0.67;;;;;;;;;;5026666;28;20014;-78
2023/11/10 12:42:44;;;;;;;5.50;0.60;;;;;;;;;;5013815;28;20409;-78
2023/11/10 12:45:10;;;;;;;3.13;0.80;;;;;;;;;;5014544;28;20030;-78
2023/11/10 12:47:38;;;;;;;1.87;0.40;;;;;;;;;;5011505;28;20022;-78
2023/11/10 12:50:11;;;;;;;2.23;0.40;;;;;;;;;;5028055;28;20096;-78
2023/11/10 12:52:38;;;;;;;3.40;0.70;;;;;;;;;;5011482;28;20027;-78
2023/11/10 12:55:08;;;;;;;1.77;0.57;;;;;;;;;;5025528;28;20057;-78
2023/11/10 12:57:35;;;;;;;0.93;0.40;;;;;;;;;;5025696;28;20018;-78
2023/11/10 13:00:09;;;;;;;1.77;0.40;;;;;;;;;;5026382;28;20018;-79
2023/11/10 13:02:39;;;;;;;2.67;0.73;;;;;;;;;;5012116;28;20038;-78
2023/11/10 13:05:08;;;;;;;3.10;0.77;;;;;;;;;;5012644;28;20030;-78
2023/11/10 13:07:37;;;;;;;0.97;0.40;;;;;;;;;;5024985;28;20018;-78
2023/11/10 13:10:11;;;;;;;4.73;0.70;;;;;;;;;;5011920;28;20010;-78
2023/11/10 13:12:47;;;;;;;1.53;0.50;;;;;;;;;;5024915;28;20050;-78
2023/11/10 13:15:16;;;;;;;1.40;0.30;;;;;;;;;;5010094;28;20037;-78
2023/11/10 13:17:42;;;;;;;1.87;0.43;;;;;;;;;;5010118;28;20018;-78
2023/11/10 13:20:09;;;;;;;2.27;0.43;;;;;;;;;;5010861;28;20050;-78
2023/11/10 13:22:37;;;;;;;3.37;0.57;;;;;;;;;;5010716;28;20026;-78
2023/11/10 13:25:05;;;;;;;1.27;0.50;;;;;;;;;;5010254;28;20027;-78
2023/11/10 13:27:31;;;;;;;1.73;0.40;;;;;;;;;;5025403;28;20018;-78
2023/11/10 13:29:59;;;;;;;1.90;0.40;;;;;;;;;;5010801;28;20030;-78
2023/11/10 13:32:25;;;;;;;1.03;0.20;;;;;;;;;;5011483;28;20006;-78
2023/11/10 13:34:52;;;;;;;1.10;0.33;;;;;;;;;;5009668;28;20038;-79
2023/11/10 13:37:19;;;;;;;0.77;0.20;;;;;;;;;;5014855;28;20044;-78
2023/11/10 13:39:45;;;;;;;5.83;0.70;;;;;;;;;;5009668;28;20019;-78
2023/11/10 13:42:11;;;;;;;0.57;0.30;;;;;;;;;;5026037;28;20033;-78
2023/11/10 13:44:40;;;;;;;0.50;0.30;;;;;;;;;;5025757;28;20025;-78
2023/11/10 13:47:06;;;;;;;0.90;0.20;;;;;;;;;;5009506;28;20030;-78
2023/11/10 13:49:32;;;;;;;1.87;0.30;;;;;;;;;;5009245;28;20049;-78
2023/11/10 13:52:00;;;;;;;1.33;0.30;;;;;;;;;;5007888;28;20093;-78
2023/11/10 13:54:27;;;;;;;0.80;0.20;;;;;;;;;;5011305;28;20042;-79
2023/11/10 13:56:55;;;;;;;1.63;0.87;;;;;;;;;;5008108;28;20522;-78
2023/11/10 13:59:21;;;;;;;2.43;0.30;;;;;;;;;;5025478;28;20033;-78
2023/11/10 14:01:54;;;;;;;1.37;0.33;;;;;;;;;;5009443;28;20042;-79
2023/11/10 14:04:22;;;;;;;0.93;0.20;;;;;;;;;;5011703;28;20030;-78
2023/11/10 14:06:50;;;;;;;1.17;0.30;;;;;;;;;;5008928;28;20026;-79
2023/11/10 14:09:16;;;;;;;3.23;0.40;;;;;;;;;;5011137;28;20011;-79
2023/11/10 14:11:45;;;;;;;1.60;0.57;;;;;;;;;;5008494;28;20034;-79
2023/11/10 14:14:11;;;;;;;1.27;0.57;;;;;;;;;;5011433;28;20030;-78
2023/11/10 14:16:37;;;;;;;1.77;0.40;;;;;;;;;;5007360;28;20042;-78
2023/11/10 14:19:06;;;;;;;2.27;0.77;;;;;;;;;;5010987;28;20110;-79
2023/11/10 14:21:33;;;;;;;1.27;0.40;;;;;;;;;;5008888;28;20045;-78
2023/11/10 14:24:00;;;;;;;1.87;0.60;;;;;;;;;;5011816;28;20041;-78
2023/11/10 14:26:26;;;;;;;1.10;0.30;;;;;;;;;;5010843;28;20050;-78
2023/11/10 14:28:53;;;;;;;0.40;0.30;;;;;;;;;;5009316;28;20038;-78
2023/11/10 14:31:19;;;;;;;2.60;0.60;;;;;;;;;;5010422;28;20042;-78
2023/11/10 14:33:46;;;;;;;1.03;0.20;;;;;;;;;;5009170;28;20023;-78
2023/11/10 14:36:17;;;;;;;3.10;0.60;;;;;;;;;;5010259;28;20023;-78
2023/11/10 14:38:46;;;;;;;4.67;1.17;;;;;;;;;;5008530;28;20052;-78
2023/11/10 14:41:12;;;;;;;6.67;0.67;;;;;;;;;;5024215;28;20022;-78
2023/11/10 14:43:38;;;;;;;2.07;0.50;;;;;;;;;;5011344;28;20042;-78
2023/11/10 14:46:08;;;;;;;2.23;0.70;;;;;;;;;;5006975;28;20037;-78
2023/11/10 14:48:40;;;;;;;2.83;0.60;;;;;;;;;;5024131;28;20025;-78
2023/11/10 14:51:07;;;;;;;;;;;;;;;;;;5012195;28;20026;-78
2023/11/10 14:53:36;;;;;;;2.53;0.53;;;;;;;;;;5007494;28;19941;-78
2023/11/10 14:56:04;;;;;;;3.93;0.73;;;;;;;;;;5020723;28;20042;-79
2023/11/10 14:58:30;;;;;;;2.50;0.70;;;;;;;;;;5023498;28;20038;-78